Main page
METAR-TAF:

METAR-TAF

Airports :

Beijing, China

Beijing Capital International Airport

latitude: 39-56N, longitude: 116-17E, elevation: 55 m

Current weather observation

The report was made 35 minutes ago, at 01:30 UTC
Wind 4 kt from the East/Southeast, varying between East/Northeast and South/Southwest
Temperature 29°C
Humidity 66%
Pressure 1007 hPa
Visibility: 3000 m
haze

METAR: ZBAA 290130Z 12002MPS 070V200 3000 HZ NSC 29/22 Q1007 NOSIG

Time: 10:05 (02:05 UTC)

Forecast

The report was made 4 hours and 45 minutes ago, at 21:20 UTC
Forecast valid from 29 at 00 UTC to 29 at 24 UTC
Wind 8 kt from the South
Visibility: 6000 m

TAF: ZBAA 282120Z 2900/2924 18004MPS 6000 NSC TX36/2907Z TN23/2921Z

Weather observations and forecasts of more than 4000 airports (METAR and TAF reports).

The available stations are represented by yellow and red dots on the map.

Hover mouse over dot to see the name of the station.

Then click to see weather observations and forecasts.

To change the map : click on the green buttons with a black cross to zoom in, on the green button with a dash to zoom out, or on the green arrows for adjacent maps.


METAR-TAF: